Portada
METAR-TAF:

METAR-TAF

Aeropuertos :

Tiaret, Argelia

latitud: 35-15N, longitud: 001-26E, altitud: 1127 m

Observación

El informe se hizo hace 34 minutos, a las 05:00 UTC
Viento 18 kt del oeste
Temperatura 6°C
Humedad 93%
Presión 1019 hPa
Visibilidad 10 km o más
Escasas nubes a una altura de 1300 ft
Nubes dispersas a una altura de 2300 ft

METAR: DAOB 040500Z 27018KT 9999 FEW013 SCT023 06/05 Q1019

Hora: 06:34 (05:34 UTC)

Pronóstico

El informe se hizo hace 6 horas y 34 minutos, a las 23:00 UTC
Pronóstico válido del 04 a las 00 UTC al 04 a las 24 UTC
Viento 16 kt del oeste
Visibilidad 10 km o más
Escasas nubes a una altura de 1300 ft
Probabilidad 30% :
Temporalmente
del 04 a las 03 UTC al 04 a las 08 UTC
Visibilidad: 2000 m
Cielo nuboso a una altura de 1000 ft
lluvia, neblina,

TAF: DAOB 032300Z 0400/0424 26016KT 9999 FEW013 PROB30 TEMPO 0403/0408 2000 RA BR BKN010

Observaciones y pronósticos meteorológicos de más de 4000 aeropuertos (mensajes METAR y TAF).

Los puntos amarillos y rojos representan las estaciones disponibles.

Ponga el ratón en el punto deseado para ver el nombre de la estación.

Haga clic para ver las observaciones y los pronósticos meteorológicos.

Para cambiar el mapa : haga clic en los botones verdes con una cruz de color negro para hacer un zoom, en el botón verde con un guión para alejar o en las flechas verdes para mapas adyacentes.


METAR-TAF: